createdAt,value
2023-05-19T00:01:45.530Z,-84
2023-05-19T00:04:15.087Z,-83
2023-05-19T00:06:44.880Z,-83
2023-05-19T00:09:13.809Z,-84
2023-05-19T00:11:42.946Z,-84
2023-05-19T00:14:11.941Z,-84
2023-05-19T00:16:42.282Z,-84
2023-05-19T00:19:11.381Z,-84
2023-05-19T00:21:40.483Z,-84
2023-05-19T00:24:09.177Z,-84
2023-05-19T00:26:37.688Z,-84
2023-05-19T00:29:06.537Z,-84
2023-05-19T00:31:58.033Z,-84
2023-05-19T00:34:26.584Z,-84
2023-05-19T00:36:54.766Z,-83
2023-05-19T00:39:24.705Z,-84
2023-05-19T00:41:53.176Z,-84
2023-05-19T00:44:21.329Z,-84
2023-05-19T00:46:49.875Z,-84
2023-05-19T00:49:18.069Z,-83
2023-05-19T00:51:46.464Z,-84
2023-05-19T00:54:15.004Z,-83
2023-05-19T00:56:43.593Z,-84
2023-05-19T00:59:12.154Z,-81
2023-05-19T01:01:40.975Z,-81
2023-05-19T01:04:10.696Z,-81
2023-05-19T01:06:39.250Z,-81
2023-05-19T01:09:07.734Z,-80
2023-05-19T01:11:36.174Z,-81
2023-05-19T01:14:04.320Z,-81
2023-05-19T01:16:45.109Z,-81
2023-05-19T01:19:51.176Z,-81
2023-05-19T01:22:44.345Z,-81
2023-05-19T01:26:07.082Z,-81
2023-05-19T01:29:10.139Z,-81
2023-05-19T01:31:40.095Z,-81
2023-05-19T01:34:08.812Z,-80
2023-05-19T01:36:38.489Z,-81
2023-05-19T01:39:07.204Z,-81
2023-05-19T01:41:36.323Z,-81
2023-05-19T01:44:05.063Z,-81
2023-05-19T01:46:33.727Z,-80
2023-05-19T01:49:02.448Z,-81
2023-05-19T01:51:31.471Z,-81
2023-05-19T01:54:10.854Z,-81
2023-05-19T01:56:54.077Z,-80
2023-05-19T01:59:50.250Z,-81
2023-05-19T02:02:49.529Z,-81
2023-05-19T02:05:30.633Z,-80
2023-05-19T02:08:15.974Z,-81
2023-05-19T02:10:51.819Z,-81
2023-05-19T02:13:25.154Z,-81
2023-05-19T02:15:58.382Z,-81
2023-05-19T02:18:29.965Z,-81
2023-05-19T02:20:58.565Z,-81
2023-05-19T02:23:27.242Z,-81
2023-05-19T02:25:55.674Z,-81
2023-05-19T02:28:27.760Z,-81
2023-05-19T02:30:56.268Z,-81
2023-05-19T02:33:27.518Z,-81
2023-05-19T02:35:56.563Z,-81
2023-05-19T02:38:25.193Z,-80
2023-05-19T02:40:53.974Z,-80
2023-05-19T02:43:22.457Z,-81
2023-05-19T02:45:51.365Z,-81
2023-05-19T02:48:21.478Z,-81
2023-05-19T02:50:50.022Z,-81
2023-05-19T02:53:18.718Z,-81
2023-05-19T02:55:47.226Z,-81
2023-05-19T02:58:15.679Z,-80
2023-05-19T03:00:45.319Z,-81
2023-05-19T03:03:15.025Z,-81
2023-05-19T03:05:43.785Z,-81
2023-05-19T03:08:12.330Z,-80
2023-05-19T03:10:44.413Z,-81
2023-05-19T03:13:12.641Z,-81
2023-05-19T03:15:42.522Z,-81
2023-05-19T03:18:12.048Z,-81
2023-05-19T03:20:42.504Z,-81
2023-05-19T03:23:10.982Z,-80
2023-05-19T03:25:39.441Z,-81
2023-05-19T03:28:07.502Z,-81
2023-05-19T03:30:35.684Z,-81
2023-05-19T03:33:05.623Z,-81
2023-05-19T03:35:35.842Z,-82
2023-05-19T03:38:04.251Z,-81
2023-05-19T03:40:32.545Z,-81
2023-05-19T03:43:01.525Z,-81
2023-05-19T03:45:30.338Z,-81
2023-05-19T03:48:00.968Z,-81
2023-05-19T03:50:31.740Z,-81
2023-05-19T03:53:00.922Z,-81
2023-05-19T03:55:30.177Z,-81
2023-05-19T03:57:58.662Z,-81
2023-05-19T04:00:26.827Z,-81
2023-05-19T04:02:55.406Z,-81
2023-05-19T04:05:24.024Z,-81
2023-05-19T04:07:52.523Z,-81
2023-05-19T04:10:21.207Z,-81
2023-05-19T04:12:49.839Z,-80
2023-05-19T04:15:18.335Z,-81
2023-05-19T04:17:47.582Z,-82
2023-05-19T04:20:16.050Z,-81
2023-05-19T04:22:44.566Z,-79
2023-05-19T04:25:13.338Z,-79
2023-05-19T04:27:42.574Z,-79
2023-05-19T04:30:11.254Z,-79
2023-05-19T04:32:41.464Z,-79
2023-05-19T04:35:22.954Z,-80
2023-05-19T04:37:54.307Z,-79
2023-05-19T04:40:24.009Z,-83
2023-05-19T04:42:54.247Z,-78
2023-05-19T04:45:23.362Z,-79
2023-05-19T04:47:52.787Z,-81
2023-05-19T04:50:21.904Z,-81
2023-05-19T04:52:50.373Z,-81
2023-05-19T04:55:18.900Z,-81
2023-05-19T04:57:47.030Z,-81
2023-05-19T05:00:15.840Z,-81
2023-05-19T05:02:44.441Z,-80
2023-05-19T05:05:13.004Z,-80
2023-05-19T05:07:41.461Z,-81
2023-05-19T05:10:10.640Z,-81
2023-05-19T05:12:39.417Z,-81
2023-05-19T05:15:08.604Z,-81
2023-05-19T05:17:37.841Z,-80
2023-05-19T05:20:07.020Z,-81
2023-05-19T05:22:36.108Z,-81
2023-05-19T05:25:05.319Z,-81
2023-05-19T05:27:33.992Z,-81
2023-05-19T05:30:02.455Z,-81
2023-05-19T05:32:30.694Z,-81
2023-05-19T05:34:59.375Z,-81
2023-05-19T05:37:27.465Z,-81
2023-05-19T05:39:56.075Z,-81
2023-05-19T05:42:24.547Z,-81
2023-05-19T05:44:53.050Z,-81
2023-05-19T05:47:21.458Z,-81
2023-05-19T05:49:52.114Z,-81
2023-05-19T05:52:23.465Z,-81
2023-05-19T05:54:51.885Z,-81
2023-05-19T05:57:20.557Z,-81
2023-05-19T05:59:49.320Z,-81
2023-05-19T06:02:18.909Z,-81
2023-05-19T06:04:47.439Z,-81
2023-05-19T06:07:15.982Z,-81
2023-05-19T06:09:44.137Z,-81
2023-05-19T06:12:12.294Z,-81
2023-05-19T06:14:40.761Z,-81
2023-05-19T06:17:09.233Z,-81
2023-05-19T06:19:37.413Z,-81
2023-05-19T06:22:06.001Z,-81
2023-05-19T06:24:34.482Z,-81
2023-05-19T06:27:02.964Z,-81
2023-05-19T06:29:31.443Z,-81
2023-05-19T06:32:00.171Z,-81
2023-05-19T06:34:28.683Z,-81
2023-05-19T06:36:57.177Z,-81
2023-05-19T06:39:26.313Z,-81
2023-05-19T06:41:55.192Z,-81
2023-05-19T06:44:24.249Z,-81
2023-05-19T06:46:52.416Z,-81
2023-05-19T06:49:21.036Z,-81
2023-05-19T06:51:49.493Z,-81
2023-05-19T06:54:17.943Z,-81
2023-05-19T06:56:46.467Z,-81
2023-05-19T06:59:16.288Z,-80
2023-05-19T07:01:44.767Z,-81
2023-05-19T07:04:13.390Z,-81
2023-05-19T07:06:41.886Z,-80
2023-05-19T07:09:10.494Z,-81
2023-05-19T07:11:39.458Z,-81
2023-05-19T07:14:07.962Z,-81
2023-05-19T07:16:36.612Z,-81
2023-05-19T07:19:05.233Z,-81
2023-05-19T07:21:33.784Z,-81
2023-05-19T07:24:02.238Z,-81
2023-05-19T07:26:31.601Z,-81
2023-05-19T07:29:00.201Z,-81
2023-05-19T07:31:28.740Z,-80
2023-05-19T07:33:57.927Z,-80
2023-05-19T07:36:27.221Z,-81
2023-05-19T07:38:56.216Z,-81
2023-05-19T07:41:25.016Z,-81
2023-05-19T07:43:53.675Z,-81
2023-05-19T07:46:22.387Z,-82
2023-05-19T07:48:51.148Z,-81
2023-05-19T07:51:19.665Z,-81
2023-05-19T07:53:48.228Z,-81
2023-05-19T07:56:16.796Z,-81
2023-05-19T07:58:45.613Z,-81
2023-05-19T08:01:14.086Z,-81
2023-05-19T08:03:42.630Z,-81
2023-05-19T08:06:11.429Z,-81
2023-05-19T08:08:39.962Z,-81
2023-05-19T08:11:08.334Z,-81
2023-05-19T08:13:36.840Z,-81
2023-05-19T08:16:05.429Z,-82
2023-05-19T08:18:34.012Z,-82
2023-05-19T08:21:02.599Z,-80
2023-05-19T08:23:31.066Z,-81
2023-05-19T08:25:59.521Z,-81
2023-05-19T08:28:39.166Z,-81
2023-05-19T08:31:07.693Z,-81
2023-05-19T08:33:36.191Z,-81
2023-05-19T08:36:04.802Z,-81
2023-05-19T08:38:33.319Z,-82
2023-05-19T08:41:01.819Z,-81
2023-05-19T08:43:30.389Z,-81
2023-05-19T08:46:01.302Z,-81
2023-05-19T08:48:32.438Z,-81
2023-05-19T08:51:51.891Z,-81
2023-05-19T08:54:22.468Z,-81
2023-05-19T08:56:51.078Z,-81
2023-05-19T08:59:21.635Z,-82
2023-05-19T09:01:51.502Z,-81
2023-05-19T09:04:20.319Z,-81
2023-05-19T09:06:50.309Z,-81
2023-05-19T09:09:18.792Z,-81
2023-05-19T09:11:48.215Z,-81
2023-05-19T09:14:16.649Z,-81
2023-05-19T09:16:49.814Z,-81
2023-05-19T09:19:18.585Z,-81
2023-05-19T09:21:47.242Z,-80
2023-05-19T09:24:15.764Z,-81
2023-05-19T09:26:44.664Z,-81
2023-05-19T09:29:17.906Z,-81
2023-05-19T09:32:05.420Z,-81
2023-05-19T09:34:36.094Z,-82
2023-05-19T09:37:05.243Z,-82
2023-05-19T09:39:33.767Z,-82
2023-05-19T09:42:07.058Z,-82
2023-05-19T09:44:36.754Z,-82
2023-05-19T09:47:05.286Z,-82
2023-05-19T09:49:33.978Z,-81
2023-05-19T09:52:04.841Z,-81
2023-05-19T09:54:34.860Z,-81
2023-05-19T09:57:08.406Z,-82
2023-05-19T09:59:38.953Z,-83
2023-05-19T10:02:12.399Z,-80
2023-05-19T10:04:41.330Z,-82
2023-05-19T10:07:11.365Z,-82
2023-05-19T10:09:40.001Z,-81
2023-05-19T10:12:09.816Z,-81
2023-05-19T10:14:38.763Z,-80
2023-05-19T10:17:07.486Z,-80
2023-05-19T10:19:36.492Z,-81
2023-05-19T10:22:05.274Z,-81
2023-05-19T10:28:41.154Z,-81
2023-05-19T10:31:14.816Z,-81
2023-05-19T10:34:25.871Z,-81
2023-05-19T10:37:32.889Z,-82
2023-05-19T10:40:01.730Z,-82
2023-05-19T10:42:42.372Z,-82
2023-05-19T10:45:23.838Z,-81
2023-05-19T10:47:52.612Z,-81
2023-05-19T10:50:21.951Z,-82
2023-05-19T10:52:58.003Z,-81
2023-05-19T10:55:59.053Z,-81
2023-05-19T10:58:41.643Z,-82
2023-05-19T11:01:16.605Z,-82
2023-05-19T11:03:49.523Z,-81
2023-05-19T11:06:29.677Z,-82
2023-05-19T11:09:28.397Z,-82
2023-05-19T11:12:05.058Z,-82
2023-05-19T11:14:34.173Z,-81
2023-05-19T11:17:02.884Z,-81
2023-05-19T11:19:38.297Z,-81
2023-05-19T11:22:14.902Z,-82
2023-05-19T11:24:50.636Z,-82
2023-05-19T11:27:40.245Z,-81
2023-05-19T11:30:09.561Z,-81
2023-05-19T11:32:39.346Z,-82
2023-05-19T11:35:09.869Z,-81
2023-05-19T11:37:40.446Z,-81
2023-05-19T11:40:09.428Z,-81
2023-05-19T11:42:38.450Z,-81
2023-05-19T11:45:07.460Z,-82
2023-05-19T11:47:45.905Z,-82
2023-05-19T11:50:20.932Z,-81
2023-05-19T11:52:49.395Z,-81
2023-05-19T11:55:22.459Z,-82
2023-05-19T11:58:03.960Z,-82
2023-05-19T12:00:39.371Z,-82
2023-05-19T12:03:09.113Z,-82
2023-05-19T12:05:43.798Z,-81
2023-05-19T12:08:13.407Z,-81
2023-05-19T12:10:42.038Z,-81
2023-05-19T12:13:11.117Z,-82
2023-05-19T12:15:39.847Z,-82
2023-05-19T12:18:08.683Z,-82
2023-05-19T12:20:37.718Z,-82
2023-05-19T12:23:07.656Z,-81
2023-05-19T12:25:36.433Z,-81
2023-05-19T12:28:05.486Z,-82
2023-05-19T12:30:35.317Z,-81
2023-05-19T12:33:04.627Z,-80
2023-05-19T12:35:34.551Z,-81
2023-05-19T12:38:06.731Z,-82
2023-05-19T12:40:36.792Z,-81
2023-05-19T12:43:05.637Z,-82
2023-05-19T12:45:39.051Z,-81
2023-05-19T12:48:12.908Z,-81
2023-05-19T12:50:41.430Z,-82
2023-05-19T12:53:11.976Z,-82
2023-05-19T12:55:43.164Z,-81
2023-05-19T12:58:13.175Z,-79
2023-05-19T13:00:47.548Z,-85
2023-05-19T13:03:22.058Z,-85
2023-05-19T13:05:52.259Z,-82
2023-05-19T13:08:24.058Z,-84
2023-05-19T13:10:52.724Z,-85
2023-05-19T13:13:22.085Z,-86
2023-05-19T13:15:50.675Z,-82
2023-05-19T13:18:19.789Z,-83
2023-05-19T13:20:50.334Z,-84
2023-05-19T13:23:19.390Z,-83
2023-05-19T13:25:48.048Z,-84
2023-05-19T13:28:16.576Z,-84
2023-05-19T13:30:46.187Z,-82
2023-05-19T13:33:15.214Z,-83
2023-05-19T13:35:43.854Z,-84
2023-05-19T13:38:12.495Z,-83
2023-05-19T13:40:41.397Z,-83
2023-05-19T13:43:10.249Z,-83
2023-05-19T13:45:39.243Z,-83
2023-05-19T13:48:08.618Z,-81
2023-05-19T13:50:37.557Z,-84
2023-05-19T13:53:06.078Z,-83
2023-05-19T13:55:34.814Z,-84
2023-05-19T13:58:03.560Z,-83
2023-05-19T14:00:38.357Z,-83
2023-05-19T14:03:12.532Z,-84
2023-05-19T14:05:53.587Z,-84
2023-05-19T14:08:27.553Z,-85
2023-05-19T14:11:02.635Z,-85
2023-05-19T14:13:40.931Z,-85
2023-05-19T14:16:12.605Z,-84
2023-05-19T14:18:45.506Z,-83
2023-05-19T14:21:18.925Z,-84
2023-05-19T14:23:57.868Z,-84
2023-05-19T14:26:29.962Z,-85
2023-05-19T14:29:10.735Z,-85
2023-05-19T14:31:50.083Z,-85
2023-05-19T14:34:21.346Z,-85
2023-05-19T14:36:50.303Z,-85
2023-05-19T14:39:30.659Z,-82
2023-05-19T14:42:18.220Z,-83
2023-05-19T14:44:50.284Z,-85
2023-05-19T14:47:18.867Z,-84
2023-05-19T14:49:47.792Z,-85
2023-05-19T14:52:25.967Z,-82
2023-05-19T14:54:56.188Z,-83
2023-05-19T14:57:31.762Z,-84
2023-05-19T15:00:00.359Z,-84
2023-05-19T15:02:35.281Z,-85
2023-05-19T15:05:26.202Z,-84
2023-05-19T15:07:56.226Z,-83
2023-05-19T15:10:33.760Z,-84
2023-05-19T15:13:08.112Z,-85
2023-05-19T15:15:40.231Z,-84
2023-05-19T15:18:09.677Z,-83
2023-05-19T15:20:38.979Z,-83
2023-05-19T15:23:07.545Z,-83
2023-05-19T15:25:36.058Z,-83
2023-05-19T15:28:05.709Z,-83
2023-05-19T15:30:34.661Z,-85
2023-05-19T15:33:03.454Z,-82
2023-05-19T15:35:32.145Z,-84
2023-05-19T15:38:05.268Z,-84
2023-05-19T15:40:34.818Z,-85
2023-05-19T15:43:03.597Z,-85
2023-05-19T15:45:32.076Z,-84
2023-05-19T15:48:03.896Z,-84
2023-05-19T15:50:33.176Z,-84
2023-05-19T15:53:01.841Z,-85
2023-05-19T15:55:30.720Z,-84
2023-05-19T15:57:59.141Z,-85
2023-05-19T16:00:27.606Z,-84
2023-05-19T16:02:56.173Z,-84
2023-05-19T16:05:24.962Z,-83
2023-05-19T16:07:53.406Z,-83
2023-05-19T16:10:22.003Z,-84
2023-05-19T16:12:50.634Z,-84
2023-05-19T16:15:19.344Z,-84
2023-05-19T16:17:47.833Z,-86
2023-05-19T16:20:17.014Z,-85
2023-05-19T16:22:45.546Z,-85
2023-05-19T16:25:14.091Z,-84
2023-05-19T16:27:42.585Z,-84
2023-05-19T16:30:11.806Z,-86
2023-05-19T16:32:40.696Z,-84
2023-05-19T16:35:09.934Z,-85
2023-05-19T16:37:38.572Z,-86
2023-05-19T16:40:07.781Z,-85
2023-05-19T16:42:36.289Z,-85
2023-05-19T16:45:08.911Z,-84
2023-05-19T16:47:37.355Z,-84
2023-05-19T16:50:06.594Z,-85
2023-05-19T16:52:35.150Z,-85
2023-05-19T16:55:03.729Z,-85
2023-05-19T16:57:32.229Z,-85
2023-05-19T17:00:00.804Z,-84
2023-05-19T17:02:30.616Z,-81
2023-05-19T17:04:59.623Z,-83
2023-05-19T17:07:29.214Z,-85
2023-05-19T17:09:57.597Z,-84
2023-05-19T17:12:26.122Z,-84
2023-05-19T17:14:54.774Z,-84
2023-05-19T17:17:23.394Z,-82
2023-05-19T17:19:52.251Z,-84
2023-05-19T17:22:20.838Z,-85
2023-05-19T17:24:49.334Z,-84
2023-05-19T17:27:17.822Z,-81
2023-05-19T17:29:52.158Z,-84
2023-05-19T17:32:25.492Z,-84
2023-05-19T17:34:54.489Z,-84
2023-05-19T17:37:25.717Z,-85
2023-05-19T17:39:54.502Z,-84
2023-05-19T17:42:23.421Z,-84
2023-05-19T17:44:52.133Z,-83
2023-05-19T17:47:20.685Z,-84
2023-05-19T17:49:50.343Z,-84
2023-05-19T17:52:19.317Z,-82
2023-05-19T17:54:47.988Z,-84
2023-05-19T17:57:18.210Z,-84
2023-05-19T17:59:47.087Z,-81
2023-05-19T18:02:15.939Z,-83
2023-05-19T18:04:44.809Z,-83
2023-05-19T18:07:13.628Z,-84
2023-05-19T18:09:46.791Z,-83
2023-05-19T18:12:15.396Z,-81
2023-05-19T18:14:43.994Z,-83
2023-05-19T18:17:12.716Z,-84
2023-05-19T18:19:41.189Z,-84
2023-05-19T18:22:12.882Z,-83
2023-05-19T18:24:41.484Z,-84
2023-05-19T18:27:09.998Z,-83
2023-05-19T18:29:39.381Z,-83
2023-05-19T18:32:08.448Z,-84
2023-05-19T18:34:37.043Z,-83
2023-05-19T18:37:05.753Z,-83
2023-05-19T18:39:34.314Z,-82
2023-05-19T18:42:02.976Z,-83
2023-05-19T18:44:31.722Z,-82
2023-05-19T18:47:00.266Z,-82
2023-05-19T18:49:28.735Z,-83
2023-05-19T18:51:57.237Z,-83
2023-05-19T18:54:25.839Z,-85
2023-05-19T18:56:55.153Z,-84
2023-05-19T18:59:24.565Z,-84
2023-05-19T19:01:55.366Z,-71
2023-05-19T19:04:24.379Z,-71
2023-05-19T19:06:53.537Z,-70
2023-05-19T19:09:21.843Z,-70
2023-05-19T19:11:50.241Z,-70
2023-05-19T19:14:19.454Z,-70
2023-05-19T19:16:48.272Z,-70
2023-05-19T19:19:17.201Z,-70
2023-05-19T19:21:46.248Z,-70
2023-05-19T19:24:15.045Z,-70
2023-05-19T19:26:43.559Z,-71
2023-05-19T19:29:12.302Z,-71
2023-05-19T19:31:40.854Z,-71
2023-05-19T19:34:09.594Z,-71
2023-05-19T19:36:38.245Z,-70
2023-05-19T19:39:06.787Z,-70
2023-05-19T19:41:35.001Z,-70
2023-05-19T19:44:03.538Z,-70
2023-05-19T19:46:32.247Z,-70
2023-05-19T19:49:02.325Z,-69
2023-05-19T19:51:31.662Z,-70
2023-05-19T19:54:00.542Z,-70
2023-05-19T19:56:29.163Z,-70
2023-05-19T19:58:59.341Z,-70
2023-05-19T20:01:28.366Z,-70
2023-05-19T20:03:57.638Z,-70
2023-05-19T20:06:26.642Z,-70
2023-05-19T20:08:55.192Z,-70
2023-05-19T20:11:24.583Z,-70
2023-05-19T20:13:53.829Z,-70
2023-05-19T20:16:22.428Z,-70
2023-05-19T20:18:51.694Z,-70
2023-05-19T20:21:20.504Z,-70
2023-05-19T20:23:50.442Z,-70
2023-05-19T20:26:18.956Z,-70
2023-05-19T20:28:47.932Z,-70
2023-05-19T20:31:16.565Z,-70
2023-05-19T20:33:45.223Z,-69
2023-05-19T20:36:13.857Z,-70
2023-05-19T20:38:42.502Z,-70
2023-05-19T20:41:11.437Z,-69
2023-05-19T20:43:40.118Z,-70
2023-05-19T20:46:08.832Z,-70
2023-05-19T20:48:37.646Z,-69
2023-05-19T20:51:06.417Z,-70
2023-05-19T20:53:35.236Z,-70
2023-05-19T20:56:05.293Z,-69
2023-05-19T20:58:34.351Z,-71
2023-05-19T21:01:03.304Z,-70
2023-05-19T21:03:32.229Z,-70
2023-05-19T21:06:01.277Z,-70
2023-05-19T21:08:29.889Z,-70
2023-05-19T21:10:58.127Z,-70
2023-05-19T21:13:26.781Z,-70
2023-05-19T21:15:57.115Z,-70
2023-05-19T21:18:25.393Z,-70
2023-05-19T21:20:53.959Z,-70
2023-05-19T21:23:22.723Z,-70
2023-05-19T21:25:52.121Z,-70
2023-05-19T21:28:20.425Z,-69
2023-05-19T21:30:50.066Z,-70
2023-05-19T21:33:18.854Z,-69
2023-05-19T21:35:47.534Z,-70
2023-05-19T21:40:51.160Z,-70
2023-05-19T21:43:21.890Z,-70
2023-05-19T21:45:50.554Z,-72
2023-05-19T21:48:19.327Z,-70
2023-05-19T21:50:47.531Z,-70
2023-05-19T21:53:15.876Z,-70
2023-05-19T21:55:44.635Z,-70
2023-05-19T21:58:13.397Z,-69
2023-05-19T22:00:42.084Z,-70
2023-05-19T22:03:10.285Z,-70
2023-05-19T22:05:38.768Z,-70
2023-05-19T22:08:07.427Z,-70
2023-05-19T22:10:37.350Z,-70
2023-05-19T22:13:06.012Z,-70
2023-05-19T22:15:34.152Z,-70
2023-05-19T22:18:02.361Z,-70
2023-05-19T22:20:31.024Z,-70
2023-05-19T22:23:01.234Z,-70
2023-05-19T22:25:29.573Z,-70
2023-05-19T22:27:59.049Z,-70
2023-05-19T22:30:27.602Z,-70
2023-05-19T22:32:56.523Z,-71
2023-05-19T22:35:24.936Z,-70
2023-05-19T22:37:53.110Z,-70
2023-05-19T22:40:21.937Z,-71
2023-05-19T22:42:50.769Z,-71
2023-05-19T22:45:19.605Z,-71
2023-05-19T22:47:48.506Z,-70
2023-05-19T22:50:17.499Z,-70
2023-05-19T22:52:46.106Z,-70
2023-05-19T22:55:14.424Z,-70
2023-05-19T22:57:42.596Z,-70
2023-05-19T23:00:14.189Z,-70
2023-05-19T23:02:43.438Z,-70
2023-05-19T23:05:12.356Z,-74
2023-05-19T23:07:40.909Z,-70
2023-05-19T23:10:09.753Z,-69
2023-05-19T23:12:38.401Z,-69
2023-05-19T23:15:08.568Z,-68
2023-05-19T23:17:37.385Z,-70
2023-05-19T23:20:06.397Z,-71
2023-05-19T23:22:34.709Z,-69
2023-05-19T23:25:07.916Z,-69
2023-05-19T23:27:37.414Z,-70
2023-05-19T23:30:06.651Z,-69
2023-05-19T23:32:35.247Z,-69
2023-05-19T23:35:18.351Z,-69
2023-05-19T23:37:46.901Z,-68
2023-05-19T23:40:16.336Z,-70
2023-05-19T23:42:44.899Z,-69
2023-05-19T23:45:13.790Z,-67
2023-05-19T23:47:42.516Z,-69
2023-05-19T23:50:11.527Z,-69
2023-05-19T23:52:40.298Z,-68
2023-05-19T23:55:09.944Z,-69
2023-05-19T23:57:38.442Z,-68
